sensor_id;sensor_type;location;lat;lon;timestamp;P1;durP1;ratioP1;P2;durP2;ratioP2
31716;SDS011;18301;51.076;17.046;2023-03-23T00:01:54;24.42;;;15.35;;
31716;SDS011;18301;51.076;17.046;2023-03-23T00:06:55;26.35;;;16.45;;
31716;SDS011;18301;51.076;17.046;2023-03-23T00:11:56;25.08;;;15.18;;
31716;SDS011;18301;51.076;17.046;2023-03-23T00:22:05;31.42;;;17.30;;
31716;SDS011;18301;51.076;17.046;2023-03-23T00:27:06;29.50;;;17.17;;
31716;SDS011;18301;51.076;17.046;2023-03-23T00:32:08;31.25;;;17.23;;
31716;SDS011;18301;51.076;17.046;2023-03-23T00:37:12;28.10;;;15.48;;
31716;SDS011;18301;51.076;17.046;2023-03-23T00:42:13;28.38;;;16.60;;
31716;SDS011;18301;51.076;17.046;2023-03-23T00:47:14;25.73;;;14.73;;
31716;SDS011;18301;51.076;17.046;2023-03-23T00:52:17;28.30;;;15.73;;
31716;SDS011;18301;51.076;17.046;2023-03-23T00:57:17;27.67;;;15.30;;
31716;SDS011;18301;51.076;17.046;2023-03-23T01:02:18;25.53;;;15.00;;
31716;SDS011;18301;51.076;17.046;2023-03-23T01:07:20;29.63;;;15.02;;
31716;SDS011;18301;51.076;17.046;2023-03-23T01:12:21;31.08;;;16.13;;
31716;SDS011;18301;51.076;17.046;2023-03-23T01:17:24;26.48;;;15.98;;
31716;SDS011;18301;51.076;17.046;2023-03-23T01:22:24;25.27;;;15.10;;
31716;SDS011;18301;51.076;17.046;2023-03-23T01:27:25;25.03;;;14.97;;
31716;SDS011;18301;51.076;17.046;2023-03-23T01:32:25;22.63;;;13.75;;
31716;SDS011;18301;51.076;17.046;2023-03-23T01:37:25;24.77;;;12.77;;
31716;SDS011;18301;51.076;17.046;2023-03-23T01:42:30;24.65;;;13.65;;
31716;SDS011;18301;51.076;17.046;2023-03-23T01:47:32;23.70;;;13.35;;
31716;SDS011;18301;51.076;17.046;2023-03-23T01:52:33;21.10;;;11.90;;
31716;SDS011;18301;51.076;17.046;2023-03-23T01:57:36;22.40;;;12.15;;
31716;SDS011;18301;51.076;17.046;2023-03-23T02:02:36;18.52;;;10.95;;
31716;SDS011;18301;51.076;17.046;2023-03-23T02:07:38;19.45;;;12.73;;
31716;SDS011;18301;51.076;17.046;2023-03-23T02:12:39;17.83;;;11.45;;
31716;SDS011;18301;51.076;17.046;2023-03-23T02:17:51;17.45;;;10.85;;
31716;SDS011;18301;51.076;17.046;2023-03-23T02:38:39;19.48;;;11.45;;
31716;SDS011;18301;51.076;17.046;2023-03-23T02:43:42;20.88;;;11.20;;
31716;SDS011;18301;51.076;17.046;2023-03-23T02:48:45;18.40;;;10.52;;
31716;SDS011;18301;51.076;17.046;2023-03-23T02:53:48;17.42;;;10.35;;
31716;SDS011;18301;51.076;17.046;2023-03-23T02:58:52;17.15;;;9.95;;
31716;SDS011;18301;51.076;17.046;2023-03-23T03:03:52;15.20;;;9.00;;
31716;SDS011;18301;51.076;17.046;2023-03-23T03:09:00;14.88;;;9.02;;
31716;SDS011;18301;51.076;17.046;2023-03-23T03:20:18;13.70;;;8.52;;
31716;SDS011;18301;51.076;17.046;2023-03-23T03:25:21;13.98;;;8.52;;
31716;SDS011;18301;51.076;17.046;2023-03-23T03:30:25;13.68;;;8.63;;
31716;SDS011;18301;51.076;17.046;2023-03-23T03:35:28;14.05;;;7.88;;
31716;SDS011;18301;51.076;17.046;2023-03-23T03:40:31;12.30;;;7.97;;
31716;SDS011;18301;51.076;17.046;2023-03-23T03:45:32;15.13;;;8.30;;
31716;SDS011;18301;51.076;17.046;2023-03-23T03:50:33;11.95;;;7.35;;
31716;SDS011;18301;51.076;17.046;2023-03-23T03:55:33;14.13;;;7.70;;
31716;SDS011;18301;51.076;17.046;2023-03-23T04:00:35;11.05;;;6.95;;
31716;SDS011;18301;51.076;17.046;2023-03-23T04:05:35;12.43;;;6.70;;
31716;SDS011;18301;51.076;17.046;2023-03-23T04:10:36;16.25;;;7.07;;
31716;SDS011;18301;51.076;17.046;2023-03-23T04:15:37;10.60;;;7.32;;
31716;SDS011;18301;51.076;17.046;2023-03-23T04:20:39;10.23;;;6.88;;
31716;SDS011;18301;51.076;17.046;2023-03-23T04:25:40;12.15;;;7.30;;
31716;SDS011;18301;51.076;17.046;2023-03-23T04:30:42;10.38;;;6.90;;
31716;SDS011;18301;51.076;17.046;2023-03-23T04:35:43;10.82;;;6.90;;
31716;SDS011;18301;51.076;17.046;2023-03-23T04:40:45;11.32;;;7.15;;
31716;SDS011;18301;51.076;17.046;2023-03-23T04:45:47;10.32;;;6.88;;
31716;SDS011;18301;51.076;17.046;2023-03-23T04:50:56;9.55;;;6.50;;
31716;SDS011;18301;51.076;17.046;2023-03-23T04:55:59;11.50;;;6.80;;
31716;SDS011;18301;51.076;17.046;2023-03-23T05:01:01;10.13;;;6.15;;
31716;SDS011;18301;51.076;17.046;2023-03-23T05:06:02;10.88;;;6.85;;
31716;SDS011;18301;51.076;17.046;2023-03-23T05:11:03;13.15;;;6.88;;
31716;SDS011;18301;51.076;17.046;2023-03-23T05:16:04;13.75;;;7.28;;
31716;SDS011;18301;51.076;17.046;2023-03-23T05:21:05;9.60;;;6.15;;
31716;SDS011;18301;51.076;17.046;2023-03-23T05:26:05;7.30;;;5.28;;
31716;SDS011;18301;51.076;17.046;2023-03-23T05:31:07;8.35;;;6.10;;
31716;SDS011;18301;51.076;17.046;2023-03-23T05:36:07;8.50;;;6.00;;
31716;SDS011;18301;51.076;17.046;2023-03-23T05:41:11;7.55;;;5.32;;
31716;SDS011;18301;51.076;17.046;2023-03-23T05:46:12;9.35;;;5.80;;
31716;SDS011;18301;51.076;17.046;2023-03-23T05:51:12;11.65;;;6.13;;
31716;SDS011;18301;51.076;17.046;2023-03-23T05:56:13;7.00;;;5.10;;
31716;SDS011;18301;51.076;17.046;2023-03-23T06:01:14;9.07;;;5.15;;
31716;SDS011;18301;51.076;17.046;2023-03-23T06:06:15;8.80;;;4.97;;
31716;SDS011;18301;51.076;17.046;2023-03-23T06:11:16;7.30;;;4.90;;
31716;SDS011;18301;51.076;17.046;2023-03-23T06:16:17;6.97;;;4.88;;
31716;SDS011;18301;51.076;17.046;2023-03-23T06:21:18;8.65;;;4.50;;
31716;SDS011;18301;51.076;17.046;2023-03-23T06:26:19;8.48;;;4.63;;
31716;SDS011;18301;51.076;17.046;2023-03-23T06:31:20;7.97;;;4.53;;
31716;SDS011;18301;51.076;17.046;2023-03-23T06:36:20;6.95;;;4.93;;
31716;SDS011;18301;51.076;17.046;2023-03-23T06:41:22;7.57;;;4.63;;
31716;SDS011;18301;51.076;17.046;2023-03-23T06:46:23;5.72;;;4.18;;
31716;SDS011;18301;51.076;17.046;2023-03-23T06:51:23;5.93;;;3.80;;
31716;SDS011;18301;51.076;17.046;2023-03-23T06:56:24;6.43;;;4.05;;
31716;SDS011;18301;51.076;17.046;2023-03-23T07:01:25;8.07;;;4.68;;
31716;SDS011;18301;51.076;17.046;2023-03-23T07:06:25;9.00;;;4.38;;
31716;SDS011;18301;51.076;17.046;2023-03-23T07:11:26;9.30;;;4.03;;
31716;SDS011;18301;51.076;17.046;2023-03-23T07:16:27;12.82;;;4.78;;
31716;SDS011;18301;51.076;17.046;2023-03-23T07:21:27;7.63;;;4.50;;
31716;SDS011;18301;51.076;17.046;2023-03-23T07:26:28;9.80;;;5.10;;
31716;SDS011;18301;51.076;17.046;2023-03-23T07:31:28;8.50;;;4.87;;
31716;SDS011;18301;51.076;17.046;2023-03-23T07:36:29;8.17;;;4.67;;
31716;SDS011;18301;51.076;17.046;2023-03-23T07:41:31;11.82;;;5.07;;
31716;SDS011;18301;51.076;17.046;2023-03-23T07:46:32;12.07;;;4.82;;
31716;SDS011;18301;51.076;17.046;2023-03-23T07:51:32;8.10;;;5.07;;
31716;SDS011;18301;51.076;17.046;2023-03-23T07:56:34;8.88;;;5.07;;
31716;SDS011;18301;51.076;17.046;2023-03-23T08:01:35;8.15;;;5.20;;
31716;SDS011;18301;51.076;17.046;2023-03-23T08:06:36;8.97;;;5.30;;
31716;SDS011;18301;51.076;17.046;2023-03-23T08:11:36;12.67;;;5.47;;
31716;SDS011;18301;51.076;17.046;2023-03-23T08:16:38;9.48;;;5.15;;
31716;SDS011;18301;51.076;17.046;2023-03-23T08:21:38;10.57;;;5.03;;
31716;SDS011;18301;51.076;17.046;2023-03-23T08:26:39;6.25;;;4.43;;
31716;SDS011;18301;51.076;17.046;2023-03-23T08:31:39;8.98;;;4.75;;
31716;SDS011;18301;51.076;17.046;2023-03-23T08:36:40;7.67;;;4.00;;
31716;SDS011;18301;51.076;17.046;2023-03-23T08:41:40;6.27;;;4.33;;
31716;SDS011;18301;51.076;17.046;2023-03-23T08:46:41;7.90;;;4.63;;
31716;SDS011;18301;51.076;17.046;2023-03-23T08:51:41;7.33;;;3.80;;
31716;SDS011;18301;51.076;17.046;2023-03-23T08:56:42;7.97;;;3.50;;
31716;SDS011;18301;51.076;17.046;2023-03-23T09:01:43;5.65;;;3.13;;
31716;SDS011;18301;51.076;17.046;2023-03-23T09:06:43;5.20;;;3.05;;
31716;SDS011;18301;51.076;17.046;2023-03-23T09:11:45;4.40;;;2.70;;
31716;SDS011;18301;51.076;17.046;2023-03-23T09:16:46;7.68;;;3.60;;
31716;SDS011;18301;51.076;17.046;2023-03-23T09:21:46;6.20;;;3.40;;
31716;SDS011;18301;51.076;17.046;2023-03-23T09:26:46;4.43;;;3.13;;
31716;SDS011;18301;51.076;17.046;2023-03-23T09:31:47;5.50;;;3.35;;
31716;SDS011;18301;51.076;17.046;2023-03-23T09:36:48;5.27;;;3.47;;
31716;SDS011;18301;51.076;17.046;2023-03-23T09:42:07;6.63;;;3.00;;
31716;SDS011;18301;51.076;17.046;2023-03-23T09:47:25;4.57;;;3.15;;
31716;SDS011;18301;51.076;17.046;2023-03-23T09:52:56;7.35;;;3.50;;
31716;SDS011;18301;51.076;17.046;2023-03-23T10:03:19;2.83;;;2.45;;
31716;SDS011;18301;51.076;17.046;2023-03-23T10:08:29;5.13;;;2.85;;
31716;SDS011;18301;51.076;17.046;2023-03-23T10:18:57;3.75;;;1.98;;
31716;SDS011;18301;51.076;17.046;2023-03-23T10:24:04;3.25;;;2.17;;
31716;SDS011;18301;51.076;17.046;2023-03-23T10:29:32;3.15;;;2.00;;
31716;SDS011;18301;51.076;17.046;2023-03-23T10:34:43;1.90;;;1.63;;
31716;SDS011;18301;51.076;17.046;2023-03-23T10:39:54;4.13;;;1.48;;
31716;SDS011;18301;51.076;17.046;2023-03-23T10:45:00;2.67;;;1.73;;
31716;SDS011;18301;51.076;17.046;2023-03-23T10:50:12;1.85;;;1.48;;
31716;SDS011;18301;51.076;17.046;2023-03-23T10:55:16;3.10;;;2.10;;
31716;SDS011;18301;51.076;17.046;2023-03-23T11:00:20;2.15;;;1.35;;
31716;SDS011;18301;51.076;17.046;2023-03-23T11:05:36;3.80;;;1.60;;
31716;SDS011;18301;51.076;17.046;2023-03-23T11:10:42;4.45;;;1.50;;
31716;SDS011;18301;51.076;17.046;2023-03-23T11:15:52;1.50;;;1.40;;
31716;SDS011;18301;51.076;17.046;2023-03-23T11:20:57;1.73;;;1.47;;
31716;SDS011;18301;51.076;17.046;2023-03-23T11:31:27;2.00;;;1.48;;
31716;SDS011;18301;51.076;17.046;2023-03-23T11:36:32;2.47;;;1.55;;
31716;SDS011;18301;51.076;17.046;2023-03-23T11:41:37;4.55;;;1.42;;
31716;SDS011;18301;51.076;17.046;2023-03-23T11:46:44;2.58;;;1.60;;
31716;SDS011;18301;51.076;17.046;2023-03-23T11:57:42;2.83;;;1.80;;
31716;SDS011;18301;51.076;17.046;2023-03-23T12:02:50;2.58;;;1.88;;
31716;SDS011;18301;51.076;17.046;2023-03-23T12:14:02;4.15;;;1.90;;
31716;SDS011;18301;51.076;17.046;2023-03-23T12:24:30;3.60;;;1.80;;
31716;SDS011;18301;51.076;17.046;2023-03-23T12:40:43;3.22;;;1.95;;
31716;SDS011;18301;51.076;17.046;2023-03-23T12:46:08;3.15;;;1.98;;
31716;SDS011;18301;51.076;17.046;2023-03-23T12:57:09;3.95;;;2.10;;
31716;SDS011;18301;51.076;17.046;2023-03-23T13:02:22;3.08;;;1.73;;
31716;SDS011;18301;51.076;17.046;2023-03-23T13:07:28;3.83;;;2.10;;
31716;SDS011;18301;51.076;17.046;2023-03-23T13:12:33;3.30;;;2.20;;
31716;SDS011;18301;51.076;17.046;2023-03-23T13:17:47;3.63;;;2.35;;
31716;SDS011;18301;51.076;17.046;2023-03-23T13:28:18;3.97;;;2.45;;
31716;SDS011;18301;51.076;17.046;2023-03-23T13:33:22;2.55;;;2.17;;
31716;SDS011;18301;51.076;17.046;2023-03-23T13:38:23;4.53;;;2.75;;
31716;SDS011;18301;51.076;17.046;2023-03-23T13:43:29;4.90;;;2.45;;
31716;SDS011;18301;51.076;17.046;2023-03-23T13:48:40;3.55;;;2.40;;
31716;SDS011;18301;51.076;17.046;2023-03-23T13:53:46;2.42;;;1.98;;
31716;SDS011;18301;51.076;17.046;2023-03-23T13:58:49;4.03;;;2.28;;
31716;SDS011;18301;51.076;17.046;2023-03-23T14:03:53;5.80;;;2.63;;
31716;SDS011;18301;51.076;17.046;2023-03-23T14:08:54;4.25;;;2.60;;
31716;SDS011;18301;51.076;17.046;2023-03-23T14:14:05;6.28;;;2.78;;
31716;SDS011;18301;51.076;17.046;2023-03-23T14:19:18;3.95;;;2.50;;
31716;SDS011;18301;51.076;17.046;2023-03-23T14:24:23;4.90;;;2.78;;
31716;SDS011;18301;51.076;17.046;2023-03-23T14:29:31;4.35;;;2.60;;
31716;SDS011;18301;51.076;17.046;2023-03-23T14:34:32;4.07;;;3.03;;
31716;SDS011;18301;51.076;17.046;2023-03-23T14:39:34;4.63;;;3.30;;
31716;SDS011;18301;51.076;17.046;2023-03-23T14:44:38;5.78;;;3.40;;
31716;SDS011;18301;51.076;17.046;2023-03-23T14:49:42;3.78;;;2.60;;
31716;SDS011;18301;51.076;17.046;2023-03-23T14:54:43;5.78;;;3.55;;
31716;SDS011;18301;51.076;17.046;2023-03-23T14:59:45;5.90;;;3.10;;
31716;SDS011;18301;51.076;17.046;2023-03-23T15:04:48;4.15;;;2.70;;
31716;SDS011;18301;51.076;17.046;2023-03-23T15:09:51;6.72;;;4.05;;
31716;SDS011;18301;51.076;17.046;2023-03-23T15:14:53;4.07;;;3.10;;
31716;SDS011;18301;51.076;17.046;2023-03-23T15:19:56;5.35;;;3.30;;
31716;SDS011;18301;51.076;17.046;2023-03-23T15:25:03;5.50;;;3.35;;
31716;SDS011;18301;51.076;17.046;2023-03-23T15:30:27;6.35;;;3.70;;
31716;SDS011;18301;51.076;17.046;2023-03-23T15:35:33;3.63;;;2.78;;
31716;SDS011;18301;51.076;17.046;2023-03-23T15:40:36;7.47;;;3.50;;
31716;SDS011;18301;51.076;17.046;2023-03-23T15:45:38;7.03;;;3.72;;
31716;SDS011;18301;51.076;17.046;2023-03-23T15:50:39;6.30;;;4.00;;
31716;SDS011;18301;51.076;17.046;2023-03-23T15:55:41;6.90;;;4.28;;
31716;SDS011;18301;51.076;17.046;2023-03-23T16:00:42;8.37;;;3.80;;
31716;SDS011;18301;51.076;17.046;2023-03-23T16:05:44;5.85;;;3.53;;
31716;SDS011;18301;51.076;17.046;2023-03-23T16:10:46;5.53;;;3.30;;
31716;SDS011;18301;51.076;17.046;2023-03-23T16:15:47;4.35;;;3.13;;
31716;SDS011;18301;51.076;17.046;2023-03-23T16:20:49;6.47;;;3.90;;
31716;SDS011;18301;51.076;17.046;2023-03-23T16:25:51;7.00;;;3.67;;
31716;SDS011;18301;51.076;17.046;2023-03-23T16:30:52;6.00;;;3.90;;
31716;SDS011;18301;51.076;17.046;2023-03-23T16:35:54;7.05;;;4.03;;
31716;SDS011;18301;51.076;17.046;2023-03-23T16:40:57;5.72;;;3.88;;
31716;SDS011;18301;51.076;17.046;2023-03-23T16:45:59;8.90;;;4.53;;
31716;SDS011;18301;51.076;17.046;2023-03-23T16:51:01;7.53;;;4.80;;
31716;SDS011;18301;51.076;17.046;2023-03-23T16:56:03;9.20;;;4.50;;
31716;SDS011;18301;51.076;17.046;2023-03-23T17:01:05;6.25;;;3.70;;
31716;SDS011;18301;51.076;17.046;2023-03-23T17:06:07;5.78;;;3.03;;
31716;SDS011;18301;51.076;17.046;2023-03-23T17:11:09;5.97;;;3.25;;
31716;SDS011;18301;51.076;17.046;2023-03-23T17:16:11;4.88;;;2.95;;
31716;SDS011;18301;51.076;17.046;2023-03-23T17:21:13;6.20;;;3.33;;
31716;SDS011;18301;51.076;17.046;2023-03-23T17:26:14;6.10;;;3.45;;
31716;SDS011;18301;51.076;17.046;2023-03-23T17:31:16;5.28;;;3.42;;
31716;SDS011;18301;51.076;17.046;2023-03-23T17:36:18;7.70;;;3.65;;
31716;SDS011;18301;51.076;17.046;2023-03-23T17:41:19;6.75;;;3.80;;
31716;SDS011;18301;51.076;17.046;2023-03-23T17:46:21;5.53;;;3.38;;
31716;SDS011;18301;51.076;17.046;2023-03-23T17:51:23;8.25;;;4.70;;
31716;SDS011;18301;51.076;17.046;2023-03-23T17:56:24;6.97;;;4.07;;
31716;SDS011;18301;51.076;17.046;2023-03-23T18:01:26;7.30;;;4.22;;
31716;SDS011;18301;51.076;17.046;2023-03-23T18:06:27;7.25;;;3.75;;
31716;SDS011;18301;51.076;17.046;2023-03-23T18:11:29;8.13;;;3.92;;
31716;SDS011;18301;51.076;17.046;2023-03-23T18:16:30;5.65;;;3.70;;
31716;SDS011;18301;51.076;17.046;2023-03-23T18:21:32;7.28;;;4.00;;
31716;SDS011;18301;51.076;17.046;2023-03-23T18:26:34;7.03;;;4.15;;
31716;SDS011;18301;51.076;17.046;2023-03-23T18:31:35;7.30;;;3.80;;
31716;SDS011;18301;51.076;17.046;2023-03-23T18:36:40;7.05;;;3.92;;
31716;SDS011;18301;51.076;17.046;2023-03-23T18:41:41;6.20;;;4.32;;
31716;SDS011;18301;51.076;17.046;2023-03-23T18:46:43;8.75;;;5.00;;
31716;SDS011;18301;51.076;17.046;2023-03-23T18:51:44;9.15;;;5.20;;
31716;SDS011;18301;51.076;17.046;2023-03-23T18:56:46;9.05;;;4.90;;
31716;SDS011;18301;51.076;17.046;2023-03-23T19:01:47;11.10;;;6.10;;
31716;SDS011;18301;51.076;17.046;2023-03-23T19:06:49;11.82;;;6.50;;
31716;SDS011;18301;51.076;17.046;2023-03-23T19:11:51;10.43;;;6.05;;
31716;SDS011;18301;51.076;17.046;2023-03-23T19:16:52;12.45;;;7.45;;
31716;SDS011;18301;51.076;17.046;2023-03-23T19:21:54;11.52;;;7.30;;
31716;SDS011;18301;51.076;17.046;2023-03-23T19:26:55;14.50;;;7.43;;
31716;SDS011;18301;51.076;17.046;2023-03-23T19:31:57;13.98;;;7.00;;
31716;SDS011;18301;51.076;17.046;2023-03-23T19:36:59;12.43;;;7.03;;
31716;SDS011;18301;51.076;17.046;2023-03-23T19:42:07;14.00;;;7.57;;
31716;SDS011;18301;51.076;17.046;2023-03-23T19:47:08;13.65;;;7.47;;
31716;SDS011;18301;51.076;17.046;2023-03-23T19:52:10;14.75;;;7.88;;
31716;SDS011;18301;51.076;17.046;2023-03-23T19:57:15;11.18;;;6.65;;
31716;SDS011;18301;51.076;17.046;2023-03-23T20:02:17;11.95;;;7.53;;
31716;SDS011;18301;51.076;17.046;2023-03-23T20:07:19;12.70;;;7.15;;
31716;SDS011;18301;51.076;17.046;2023-03-23T20:12:21;10.85;;;6.90;;
31716;SDS011;18301;51.076;17.046;2023-03-23T20:17:23;10.80;;;6.45;;
31716;SDS011;18301;51.076;17.046;2023-03-23T20:22:25;9.82;;;6.45;;
31716;SDS011;18301;51.076;17.046;2023-03-23T20:27:27;9.65;;;6.38;;
31716;SDS011;18301;51.076;17.046;2023-03-23T20:32:29;11.00;;;5.85;;
31716;SDS011;18301;51.076;17.046;2023-03-23T20:37:36;9.98;;;6.35;;
31716;SDS011;18301;51.076;17.046;2023-03-23T20:42:39;9.77;;;6.43;;
31716;SDS011;18301;51.076;17.046;2023-03-23T20:47:44;11.05;;;6.85;;
31716;SDS011;18301;51.076;17.046;2023-03-23T20:52:46;11.70;;;6.80;;
31716;SDS011;18301;51.076;17.046;2023-03-23T20:57:48;12.48;;;7.25;;
31716;SDS011;18301;51.076;17.046;2023-03-23T21:02:50;11.00;;;6.70;;
31716;SDS011;18301;51.076;17.046;2023-03-23T21:07:54;11.23;;;7.00;;
31716;SDS011;18301;51.076;17.046;2023-03-23T21:12:58;11.70;;;7.03;;
31716;SDS011;18301;51.076;17.046;2023-03-23T21:18:00;11.02;;;7.35;;
31716;SDS011;18301;51.076;17.046;2023-03-23T21:23:01;11.10;;;7.28;;
31716;SDS011;18301;51.076;17.046;2023-03-23T21:28:05;12.75;;;7.47;;
31716;SDS011;18301;51.076;17.046;2023-03-23T21:33:09;11.63;;;7.38;;
31716;SDS011;18301;51.076;17.046;2023-03-23T21:38:10;12.75;;;7.68;;
31716;SDS011;18301;51.076;17.046;2023-03-23T21:43:14;14.63;;;7.78;;
31716;SDS011;18301;51.076;17.046;2023-03-23T21:48:16;13.35;;;7.65;;
31716;SDS011;18301;51.076;17.046;2023-03-23T21:53:18;14.00;;;8.85;;
31716;SDS011;18301;51.076;17.046;2023-03-23T21:58:22;16.45;;;9.20;;
31716;SDS011;18301;51.076;17.046;2023-03-23T22:03:24;16.52;;;8.43;;
31716;SDS011;18301;51.076;17.046;2023-03-23T22:08:27;14.15;;;8.32;;
31716;SDS011;18301;51.076;17.046;2023-03-23T22:13:30;15.43;;;8.02;;
31716;SDS011;18301;51.076;17.046;2023-03-23T22:18:34;11.77;;;7.22;;
31716;SDS011;18301;51.076;17.046;2023-03-23T22:23:38;14.18;;;8.30;;
31716;SDS011;18301;51.076;17.046;2023-03-23T22:28:40;12.98;;;8.20;;
31716;SDS011;18301;51.076;17.046;2023-03-23T22:33:42;14.30;;;7.60;;
31716;SDS011;18301;51.076;17.046;2023-03-23T22:38:45;12.18;;;7.50;;
31716;SDS011;18301;51.076;17.046;2023-03-23T22:43:47;12.00;;;6.80;;
31716;SDS011;18301;51.076;17.046;2023-03-23T22:48:49;10.60;;;6.22;;
31716;SDS011;18301;51.076;17.046;2023-03-23T22:53:51;9.90;;;6.22;;
31716;SDS011;18301;51.076;17.046;2023-03-23T22:58:52;8.00;;;5.40;;
31716;SDS011;18301;51.076;17.046;2023-03-23T23:03:54;7.85;;;5.50;;
31716;SDS011;18301;51.076;17.046;2023-03-23T23:08:56;9.05;;;5.03;;
31716;SDS011;18301;51.076;17.046;2023-03-23T23:13:57;8.73;;;4.90;;
31716;SDS011;18301;51.076;17.046;2023-03-23T23:18:59;8.85;;;5.10;;
31716;SDS011;18301;51.076;17.046;2023-03-23T23:24:00;9.45;;;5.45;;
31716;SDS011;18301;51.076;17.046;2023-03-23T23:29:02;11.27;;;5.40;;
31716;SDS011;18301;51.076;17.046;2023-03-23T23:34:04;7.93;;;5.07;;
31716;SDS011;18301;51.076;17.046;2023-03-23T23:39:06;9.48;;;4.82;;
31716;SDS011;18301;51.076;17.046;2023-03-23T23:44:07;6.88;;;4.53;;
31716;SDS011;18301;51.076;17.046;2023-03-23T23:49:09;6.10;;;3.97;;
31716;SDS011;18301;51.076;17.046;2023-03-23T23:54:10;7.30;;;4.35;;
31716;SDS011;18301;51.076;17.046;2023-03-23T23:59:15;7.10;;;4.03;;
